Terminal Aerodrome Forecast
Issued by NWS

Home | Current Version | Previous Version | Text Only | Print | Product List | Glossary On
Versions: 1 2 3 4 5 6 7 8 9 10 11 12
000
FTUS44 KTSA 282300
TAFFYV
TAF
KFYV 282320Z 2900/2924 32007KT P6SM SCT250
     FM290300 00000KT P6SM SKC
     FM291400 VRB04KT P6SM BKN110
     FM292000 30005KT P6SM SCT100=

USA.gov is the U.S. government's official web portal to all federal, state and local government web resources and services.